Puig, Spain
Current Conditions -  °F | °C
As of 1:00 AM on Sunday 26 Oct 2014 (Local Time) from LEBT Reporting Station
Clear Clear  
Wind Chill: 16°   Ceiling: Unl
Heat Index: 16°   Visibility: 6mi
Dew Point:   Wind: 3mph
Humidity: 63%   Direction: 350°N
Pressure: 30.15"   Gusts: NA
Location:  39.59°N, 0.3°W
Report Text: LEBT 252300Z AUTO 35003KT 330V030 CAVOK 16/09 Q1021
Loading
Personal Weather Stations






























Interactive Weather Map
Tropical Storm Tracking
New forecast layout! Learn more

10-Day Weather Forecast

Advertisements
Track Severe Weather on mobile